sensor_id;sensor_type;location;lat;lon;timestamp;pressure;altitude;pressure_sealevel;temperature;humidity
66385;BME280;53426;55.872;37.462;2023-06-14T00:02:14;99619.63;;;13.54;50.38
66385;BME280;53426;55.872;37.462;2023-06-14T00:04:42;99574.25;;;13.28;50.45
66385;BME280;53426;55.872;37.462;2023-06-14T00:07:09;99593.13;;;13.34;50.50
66385;BME280;53426;55.872;37.462;2023-06-14T00:09:35;99643.03;;;13.50;51.11
66385;BME280;53426;55.872;37.462;2023-06-14T00:12:01;99604.47;;;13.27;51.26
66385;BME280;53426;55.872;37.462;2023-06-14T00:14:28;99638.69;;;13.49;50.82
66385;BME280;53426;55.872;37.462;2023-06-14T00:16:54;99636.88;;;13.50;50.81
66385;BME280;53426;55.872;37.462;2023-06-14T00:19:26;99615.91;;;13.37;51.33
66385;BME280;53426;55.872;37.462;2023-06-14T00:21:53;99589.25;;;13.19;51.59
66385;BME280;53426;55.872;37.462;2023-06-14T00:24:20;99631.28;;;13.43;51.69
66385;BME280;53426;55.872;37.462;2023-06-14T00:26:47;99638.72;;;13.39;51.80
66385;BME280;53426;55.872;37.462;2023-06-14T00:29:13;99628.81;;;13.32;51.42
66385;BME280;53426;55.872;37.462;2023-06-14T00:31:40;99638.47;;;13.33;51.63
66385;BME280;53426;55.872;37.462;2023-06-14T00:34:06;99570.38;;;12.93;51.79
66385;BME280;53426;55.872;37.462;2023-06-14T00:36:33;99569.41;;;12.94;52.46
66385;BME280;53426;55.872;37.462;2023-06-14T00:38:59;99632.47;;;13.31;51.45
66385;BME280;53426;55.872;37.462;2023-06-14T00:41:25;99591.63;;;13.03;52.33
66385;BME280;53426;55.872;37.462;2023-06-14T00:43:53;99638.06;;;13.28;52.44
66385;BME280;53426;55.872;37.462;2023-06-14T00:46:21;99587.03;;;12.95;52.15
66385;BME280;53426;55.872;37.462;2023-06-14T00:48:49;99560.91;;;12.81;52.49
66385;BME280;53426;55.872;37.462;2023-06-14T00:51:16;99587.47;;;12.81;52.43
66385;BME280;53426;55.872;37.462;2023-06-14T00:53:42;99550.84;;;12.66;52.33
66385;BME280;53426;55.872;37.462;2023-06-14T00:56:14;99625.06;;;13.06;52.69
66385;BME280;53426;55.872;37.462;2023-06-14T00:58:42;99642.56;;;13.18;52.81
66385;BME280;53426;55.872;37.462;2023-06-14T01:01:08;99626.59;;;13.08;52.34
66385;BME280;53426;55.872;37.462;2023-06-14T01:03:35;99581.44;;;12.89;52.77
66385;BME280;53426;55.872;37.462;2023-06-14T01:11:41;99614.00;;;13.00;52.86
66385;BME280;53426;55.872;37.462;2023-06-14T01:14:12;99637.25;;;13.18;53.23
66385;BME280;53426;55.872;37.462;2023-06-14T01:16:40;99621.56;;;13.15;53.13
66385;BME280;53426;55.872;37.462;2023-06-14T01:19:10;99619.72;;;13.06;53.44
66385;BME280;53426;55.872;37.462;2023-06-14T01:21:39;99624.91;;;13.07;53.31
66385;BME280;53426;55.872;37.462;2023-06-14T01:24:09;99636.00;;;13.12;53.62
66385;BME280;53426;55.872;37.462;2023-06-14T01:26:38;99649.69;;;13.08;53.96
66385;BME280;53426;55.872;37.462;2023-06-14T01:29:12;99638.06;;;12.99;54.20
66385;BME280;53426;55.872;37.462;2023-06-14T01:31:42;99581.91;;;12.65;54.54
66385;BME280;53426;55.872;37.462;2023-06-14T01:34:08;99591.94;;;12.71;54.59
66385;BME280;53426;55.872;37.462;2023-06-14T01:36:36;99639.47;;;12.93;54.09
66385;BME280;53426;55.872;37.462;2023-06-14T01:39:04;99624.53;;;12.92;55.26
66385;BME280;53426;55.872;37.462;2023-06-14T01:41:31;99603.41;;;12.72;54.45
66385;BME280;53426;55.872;37.462;2023-06-14T01:43:58;99607.31;;;12.77;54.56
66385;BME280;53426;55.872;37.462;2023-06-14T01:46:25;99597.53;;;12.68;54.69
66385;BME280;53426;55.872;37.462;2023-06-14T01:48:54;99648.69;;;12.99;54.77
66385;BME280;53426;55.872;37.462;2023-06-14T01:51:20;99549.06;;;12.37;54.32
66385;BME280;53426;55.872;37.462;2023-06-14T01:53:48;99635.84;;;12.94;54.03
66385;BME280;53426;55.872;37.462;2023-06-14T01:56:15;99642.41;;;13.00;55.13
66385;BME280;53426;55.872;37.462;2023-06-14T01:58:42;99614.28;;;12.88;54.04
66385;BME280;53426;55.872;37.462;2023-06-14T02:01:10;99608.31;;;12.86;54.61
66385;BME280;53426;55.872;37.462;2023-06-14T02:03:37;99646.19;;;13.07;54.27
66385;BME280;53426;55.872;37.462;2023-06-14T02:06:04;99654.03;;;13.09;54.08
66385;BME280;53426;55.872;37.462;2023-06-14T02:08:30;99645.03;;;13.10;54.36
66385;BME280;53426;55.872;37.462;2023-06-14T02:10:59;99648.44;;;13.12;54.50
66385;BME280;53426;55.872;37.462;2023-06-14T02:13:26;99647.34;;;13.14;54.93
66385;BME280;53426;55.872;37.462;2023-06-14T02:16:12;99607.56;;;12.93;55.02
66385;BME280;53426;55.872;37.462;2023-06-14T02:18:38;99627.44;;;13.09;55.35
66385;BME280;53426;55.872;37.462;2023-06-14T02:21:24;99630.25;;;13.17;55.27
66385;BME280;53426;55.872;37.462;2023-06-14T02:23:49;99656.41;;;13.31;54.96
66385;BME280;53426;55.872;37.462;2023-06-14T02:26:16;99628.00;;;13.22;55.20
66385;BME280;53426;55.872;37.462;2023-06-14T02:28:42;99636.38;;;13.27;55.58
66385;BME280;53426;55.872;37.462;2023-06-14T02:31:08;99627.41;;;13.28;55.35
66385;BME280;53426;55.872;37.462;2023-06-14T02:33:34;99650.06;;;13.42;54.96
66385;BME280;53426;55.872;37.462;2023-06-14T02:36:01;99618.47;;;13.29;55.34
66385;BME280;53426;55.872;37.462;2023-06-14T02:38:28;99645.84;;;13.49;55.28
66385;BME280;53426;55.872;37.462;2023-06-14T02:40:54;99647.25;;;13.53;55.13
66385;BME280;53426;55.872;37.462;2023-06-14T02:43:20;99639.41;;;13.51;55.06
66385;BME280;53426;55.872;37.462;2023-06-14T02:45:46;99592.81;;;13.47;54.72
66385;BME280;53426;55.872;37.462;2023-06-14T02:48:13;99618.31;;;14.49;53.20
66385;BME280;53426;55.872;37.462;2023-06-14T02:50:40;99618.13;;;15.30;50.81
66385;BME280;53426;55.872;37.462;2023-06-14T02:53:06;99650.66;;;16.19;49.38
66385;BME280;53426;55.872;37.462;2023-06-14T02:55:34;99650.78;;;16.76;47.86
66385;BME280;53426;55.872;37.462;2023-06-14T02:58:06;99656.81;;;17.42;46.44
66385;BME280;53426;55.872;37.462;2023-06-14T03:00:36;99661.59;;;17.79;45.65
66385;BME280;53426;55.872;37.462;2023-06-14T03:03:01;99653.13;;;18.15;44.68
66385;BME280;53426;55.872;37.462;2023-06-14T03:05:28;99663.53;;;18.40;44.08
66385;BME280;53426;55.872;37.462;2023-06-14T03:07:55;99649.72;;;18.60;43.69
66385;BME280;53426;55.872;37.462;2023-06-14T03:10:21;99670.41;;;18.74;42.69
66385;BME280;53426;55.872;37.462;2023-06-14T03:12:49;99676.13;;;18.94;42.71
66385;BME280;53426;55.872;37.462;2023-06-14T03:15:17;99662.88;;;19.15;41.97
66385;BME280;53426;55.872;37.462;2023-06-14T03:17:46;99668.03;;;19.39;41.91
66385;BME280;53426;55.872;37.462;2023-06-14T03:20:16;99646.16;;;19.50;41.30
66385;BME280;53426;55.872;37.462;2023-06-14T03:22:43;99668.69;;;19.93;40.55
66385;BME280;53426;55.872;37.462;2023-06-14T03:25:12;99657.72;;;20.24;40.16
66385;BME280;53426;55.872;37.462;2023-06-14T03:27:39;99659.22;;;20.63;39.34
66385;BME280;53426;55.872;37.462;2023-06-14T03:30:06;99649.91;;;20.80;38.32
66385;BME280;53426;55.872;37.462;2023-06-14T03:32:34;99650.06;;;21.14;38.37
66385;BME280;53426;55.872;37.462;2023-06-14T03:35:01;99635.97;;;21.40;37.78
66385;BME280;53426;55.872;37.462;2023-06-14T03:37:29;99638.00;;;21.66;37.51
66385;BME280;53426;55.872;37.462;2023-06-14T03:39:55;99656.81;;;22.22;36.96
66385;BME280;53426;55.872;37.462;2023-06-14T03:42:23;99657.91;;;22.34;36.52
66385;BME280;53426;55.872;37.462;2023-06-14T03:44:49;99622.50;;;22.63;36.18
66385;BME280;53426;55.872;37.462;2023-06-14T03:47:21;99621.31;;;22.99;35.54
66385;BME280;53426;55.872;37.462;2023-06-14T03:49:50;99641.69;;;23.41;34.89
66385;BME280;53426;55.872;37.462;2023-06-14T03:52:16;99653.34;;;23.67;33.76
66385;BME280;53426;55.872;37.462;2023-06-14T03:55:02;99661.16;;;24.02;33.97
66385;BME280;53426;55.872;37.462;2023-06-14T03:57:30;99659.91;;;24.17;33.42
66385;BME280;53426;55.872;37.462;2023-06-14T03:59:58;99646.69;;;24.41;31.85
66385;BME280;53426;55.872;37.462;2023-06-14T04:02:27;99641.97;;;24.23;32.11
66385;BME280;53426;55.872;37.462;2023-06-14T04:05:37;99669.00;;;24.30;31.65
66385;BME280;53426;55.872;37.462;2023-06-14T04:08:08;99635.13;;;24.21;31.46
66385;BME280;53426;55.872;37.462;2023-06-14T04:10:35;99655.94;;;24.65;30.96
66385;BME280;53426;55.872;37.462;2023-06-14T04:13:01;99623.69;;;24.56;30.97
66385;BME280;53426;55.872;37.462;2023-06-14T04:15:27;99630.94;;;25.00;30.54
66385;BME280;53426;55.872;37.462;2023-06-14T04:17:58;99678.84;;;25.31;30.32
66385;BME280;53426;55.872;37.462;2023-06-14T04:20:25;99640.25;;;25.61;29.51
66385;BME280;53426;55.872;37.462;2023-06-14T04:23:14;99582.72;;;25.77;29.69
66385;BME280;53426;55.872;37.462;2023-06-14T04:25:41;99636.00;;;25.90;28.93
66385;BME280;53426;55.872;37.462;2023-06-14T04:28:11;99620.84;;;25.82;28.90
66385;BME280;53426;55.872;37.462;2023-06-14T04:30:43;99652.09;;;26.28;28.47
66385;BME280;53426;55.872;37.462;2023-06-14T04:33:14;99621.22;;;26.04;28.21
66385;BME280;53426;55.872;37.462;2023-06-14T04:35:40;99644.13;;;26.08;28.08
66385;BME280;53426;55.872;37.462;2023-06-14T04:38:07;99617.00;;;26.08;28.30
66385;BME280;53426;55.872;37.462;2023-06-14T04:40:43;99652.34;;;26.56;27.82
66385;BME280;53426;55.872;37.462;2023-06-14T04:43:11;99641.56;;;27.09;27.13
66385;BME280;53426;55.872;37.462;2023-06-14T04:45:46;99579.66;;;27.46;26.43
66385;BME280;53426;55.872;37.462;2023-06-14T04:48:13;99592.72;;;28.19;25.22
66385;BME280;53426;55.872;37.462;2023-06-14T04:50:44;99595.94;;;28.44;25.12
66385;BME280;53426;55.872;37.462;2023-06-14T04:53:11;99657.38;;;29.25;24.69
66385;BME280;53426;55.872;37.462;2023-06-14T04:55:37;99638.44;;;29.69;24.17
66385;BME280;53426;55.872;37.462;2023-06-14T04:58:04;99654.84;;;30.07;23.33
66385;BME280;53426;55.872;37.462;2023-06-14T05:00:31;99628.88;;;29.49;23.72
66385;BME280;53426;55.872;37.462;2023-06-14T05:02:57;99650.88;;;29.60;24.36
66385;BME280;53426;55.872;37.462;2023-06-14T05:05:24;99648.59;;;29.90;23.96
66385;BME280;53426;55.872;37.462;2023-06-14T05:08:00;99648.56;;;30.28;22.85
66385;BME280;53426;55.872;37.462;2023-06-14T05:10:29;99622.19;;;29.24;22.83
66385;BME280;53426;55.872;37.462;2023-06-14T05:12:55;99593.78;;;28.46;23.61
66385;BME280;53426;55.872;37.462;2023-06-14T05:15:22;99605.06;;;28.66;23.85
66385;BME280;53426;55.872;37.462;2023-06-14T05:17:51;99624.06;;;28.90;23.39
66385;BME280;53426;55.872;37.462;2023-06-14T05:20:22;99605.41;;;29.48;23.54
66385;BME280;53426;55.872;37.462;2023-06-14T05:22:54;99610.84;;;30.25;23.35
66385;BME280;53426;55.872;37.462;2023-06-14T05:25:20;99648.69;;;30.82;22.36
66385;BME280;53426;55.872;37.462;2023-06-14T05:27:47;99602.81;;;31.21;22.17
66385;BME280;53426;55.872;37.462;2023-06-14T05:30:14;99647.13;;;31.92;21.45
66385;BME280;53426;55.872;37.462;2023-06-14T05:32:42;99628.19;;;32.37;20.63
66385;BME280;53426;55.872;37.462;2023-06-14T05:35:08;99640.78;;;32.28;20.30
66385;BME280;53426;55.872;37.462;2023-06-14T05:37:36;99612.50;;;32.18;21.12
66385;BME280;53426;55.872;37.462;2023-06-14T05:40:04;99646.97;;;32.71;20.06
66385;BME280;53426;55.872;37.462;2023-06-14T05:42:38;99646.13;;;32.65;20.62
66385;BME280;53426;55.872;37.462;2023-06-14T05:45:04;99642.06;;;32.83;19.18
66385;BME280;53426;55.872;37.462;2023-06-14T05:47:31;99637.28;;;32.53;19.82
66385;BME280;53426;55.872;37.462;2023-06-14T05:49:57;99635.78;;;33.23;20.07
66385;BME280;53426;55.872;37.462;2023-06-14T05:52:23;99639.31;;;33.84;19.32
66385;BME280;53426;55.872;37.462;2023-06-14T05:54:51;99623.94;;;33.78;17.97
66385;BME280;53426;55.872;37.462;2023-06-14T05:57:16;99631.41;;;33.42;17.99
66385;BME280;53426;55.872;37.462;2023-06-14T05:59:50;99619.03;;;33.09;18.15
66385;BME280;53426;55.872;37.462;2023-06-14T06:14:21;99627.59;;;32.30;17.68
66385;BME280;53426;55.872;37.462;2023-06-14T06:16:49;99641.56;;;32.24;18.54
66385;BME280;53426;55.872;37.462;2023-06-14T06:19:19;99630.66;;;32.39;17.90
66385;BME280;53426;55.872;37.462;2023-06-14T06:21:45;99637.63;;;32.10;17.73
66385;BME280;53426;55.872;37.462;2023-06-14T06:24:11;99641.66;;;31.55;17.69
66385;BME280;53426;55.872;37.462;2023-06-14T06:26:37;99645.19;;;31.50;18.24
66385;BME280;53426;55.872;37.462;2023-06-14T06:29:06;99633.09;;;31.78;18.04
66385;BME280;53426;55.872;37.462;2023-06-14T06:31:37;99644.25;;;31.35;18.28
66385;BME280;53426;55.872;37.462;2023-06-14T06:34:03;99643.03;;;31.94;18.27
66385;BME280;53426;55.872;37.462;2023-06-14T06:39:27;99650.56;;;32.87;17.39
66385;BME280;53426;55.872;37.462;2023-06-14T06:41:55;99642.66;;;33.26;17.38
66385;BME280;53426;55.872;37.462;2023-06-14T06:44:31;99623.03;;;31.94;17.18
66385;BME280;53426;55.872;37.462;2023-06-14T06:46:57;99622.84;;;31.59;17.22
66385;BME280;53426;55.872;37.462;2023-06-14T06:49:54;99629.94;;;32.02;17.58
66385;BME280;53426;55.872;37.462;2023-06-14T06:52:20;99633.16;;;31.88;17.81
66385;BME280;53426;55.872;37.462;2023-06-14T06:54:46;99624.25;;;31.66;18.33
66385;BME280;53426;55.872;37.462;2023-06-14T06:57:46;99628.97;;;32.28;18.52
66385;BME280;53426;55.872;37.462;2023-06-14T07:00:12;99598.56;;;31.35;18.30
66385;BME280;53426;55.872;37.462;2023-06-14T07:02:38;99630.25;;;31.63;18.83
66385;BME280;53426;55.872;37.462;2023-06-14T07:05:07;99641.03;;;32.32;17.47
66385;BME280;53426;55.872;37.462;2023-06-14T07:07:51;99590.78;;;32.78;16.74
66385;BME280;53426;55.872;37.462;2023-06-14T07:10:44;99578.97;;;33.03;16.68
66385;BME280;53426;55.872;37.462;2023-06-14T07:13:10;99616.53;;;32.83;16.43
66385;BME280;53426;55.872;37.462;2023-06-14T07:15:37;99588.28;;;32.92;17.12
66385;BME280;53426;55.872;37.462;2023-06-14T07:18:03;99574.84;;;33.36;16.80
66385;BME280;53426;55.872;37.462;2023-06-14T07:20:34;99593.47;;;33.65;16.82
66385;BME280;53426;55.872;37.462;2023-06-14T07:23:00;99622.75;;;34.20;17.10
66385;BME280;53426;55.872;37.462;2023-06-14T07:29:44;99639.25;;;32.68;17.33
66385;BME280;53426;55.872;37.462;2023-06-14T07:35:14;99516.91;;;31.17;17.65
66385;BME280;53426;55.872;37.462;2023-06-14T07:45:09;99451.28;;;30.85;17.13
66385;BME280;53426;55.872;37.462;2023-06-14T07:47:37;99529.94;;;31.99;16.81
66385;BME280;53426;55.872;37.462;2023-06-14T07:54:20;99487.84;;;32.25;16.03
66385;BME280;53426;55.872;37.462;2023-06-14T08:06:25;99561.63;;;32.57;15.96
66385;BME280;53426;55.872;37.462;2023-06-14T08:36:21;99579.91;;;34.09;15.12
66385;BME280;53426;55.872;37.462;2023-06-14T08:38:48;99591.28;;;33.72;15.51
66385;BME280;53426;55.872;37.462;2023-06-14T08:41:21;99548.22;;;33.42;15.71
66385;BME280;53426;55.872;37.462;2023-06-14T08:44:16;99599.00;;;34.39;15.56
66385;BME280;53426;55.872;37.462;2023-06-14T08:46:42;99559.75;;;33.34;15.24
66385;BME280;53426;55.872;37.462;2023-06-14T08:49:11;99542.41;;;32.52;16.06
66385;BME280;53426;55.872;37.462;2023-06-14T08:51:40;99512.28;;;33.13;15.59
66385;BME280;53426;55.872;37.462;2023-06-14T09:03:13;99585.66;;;36.16;14.38
66385;BME280;53426;55.872;37.462;2023-06-14T09:05:44;99533.38;;;35.58;14.63
66385;BME280;53426;55.872;37.462;2023-06-14T09:11:36;99579.50;;;36.42;14.83
66385;BME280;53426;55.872;37.462;2023-06-14T09:14:02;99548.56;;;36.03;14.32
66385;BME280;53426;55.872;37.462;2023-06-14T09:16:32;99516.25;;;36.08;14.73
66385;BME280;53426;55.872;37.462;2023-06-14T09:27:59;99447.66;;;33.71;14.58
66385;BME280;53426;55.872;37.462;2023-06-14T09:30:28;99458.28;;;32.98;15.29
66385;BME280;53426;55.872;37.462;2023-06-14T09:32:54;99524.53;;;33.61;15.27
66385;BME280;53426;55.872;37.462;2023-06-14T09:35:20;99479.53;;;34.21;14.94
66385;BME280;53426;55.872;37.462;2023-06-14T09:38:12;99562.78;;;36.34;14.47
66385;BME280;53426;55.872;37.462;2023-06-14T09:41:03;99566.25;;;36.82;13.92
66385;BME280;53426;55.872;37.462;2023-06-14T09:43:29;99498.97;;;34.74;15.04
66385;BME280;53426;55.872;37.462;2023-06-14T09:49:39;99509.00;;;34.06;14.30
66385;BME280;53426;55.872;37.462;2023-06-14T09:52:06;99516.34;;;34.69;14.86
66385;BME280;53426;55.872;37.462;2023-06-14T09:55:01;99567.03;;;36.02;14.29
66385;BME280;53426;55.872;37.462;2023-06-14T10:12:51;99513.53;;;36.65;13.66
66385;BME280;53426;55.872;37.462;2023-06-14T10:21:21;99502.44;;;36.83;12.91
66385;BME280;53426;55.872;37.462;2023-06-14T10:33:17;99430.91;;;35.37;13.51
66385;BME280;53426;55.872;37.462;2023-06-14T10:38:39;99402.28;;;33.79;14.27
66385;BME280;53426;55.872;37.462;2023-06-14T10:41:09;99396.88;;;32.18;15.42
66385;BME280;53426;55.872;37.462;2023-06-14T10:47:34;99456.59;;;31.44;16.21
66385;BME280;53426;55.872;37.462;2023-06-14T10:50:30;99519.38;;;32.28;16.24
66385;BME280;53426;55.872;37.462;2023-06-14T10:52:56;99374.56;;;31.02;17.18
66385;BME280;53426;55.872;37.462;2023-06-14T10:55:22;99452.28;;;30.69;17.70
66385;BME280;53426;55.872;37.462;2023-06-14T10:57:53;99494.69;;;29.52;19.02
66385;BME280;53426;55.872;37.462;2023-06-14T11:00:23;99349.69;;;28.12;20.22
66385;BME280;53426;55.872;37.462;2023-06-14T11:05:51;99492.84;;;28.69;19.83
66385;BME280;53426;55.872;37.462;2023-06-14T11:11:10;99268.25;;;25.22;21.48
66385;BME280;53426;55.872;37.462;2023-06-14T11:22:19;99421.69;;;25.23;24.25
66385;BME280;53426;55.872;37.462;2023-06-14T11:24:49;99497.59;;;25.78;24.09
66385;BME280;53426;55.872;37.462;2023-06-14T11:27:15;99494.88;;;25.41;23.04
66385;BME280;53426;55.872;37.462;2023-06-14T11:29:48;99481.66;;;24.84;23.57
66385;BME280;53426;55.872;37.462;2023-06-14T11:32:14;99490.59;;;24.91;24.07
66385;BME280;53426;55.872;37.462;2023-06-14T11:34:40;99480.75;;;24.96;24.20
66385;BME280;53426;55.872;37.462;2023-06-14T11:37:06;99414.53;;;24.68;24.14
66385;BME280;53426;55.872;37.462;2023-06-14T11:39:35;99492.16;;;24.98;23.70
66385;BME280;53426;55.872;37.462;2023-06-14T11:42:01;99441.13;;;24.52;24.57
66385;BME280;53426;55.872;37.462;2023-06-14T11:44:29;99468.56;;;24.81;24.83
66385;BME280;53426;55.872;37.462;2023-06-14T11:56:13;99449.91;;;24.48;24.92
66385;BME280;53426;55.872;37.462;2023-06-14T11:59:06;99487.78;;;24.73;24.85
66385;BME280;53426;55.872;37.462;2023-06-14T12:02:24;99347.94;;;23.86;25.05
66385;BME280;53426;55.872;37.462;2023-06-14T12:04:53;99415.03;;;24.33;25.08
66385;BME280;53426;55.872;37.462;2023-06-14T12:11:44;99431.34;;;24.51;25.24
66385;BME280;53426;55.872;37.462;2023-06-14T12:14:10;99470.28;;;24.75;23.56
66385;BME280;53426;55.872;37.462;2023-06-14T12:16:39;99476.56;;;24.44;24.23
66385;BME280;53426;55.872;37.462;2023-06-14T12:23:49;99378.13;;;23.45;24.90
66385;BME280;53426;55.872;37.462;2023-06-14T12:26:20;99271.50;;;23.03;25.22
66385;BME280;53426;55.872;37.462;2023-06-14T12:28:55;99471.69;;;24.28;24.86
66385;BME280;53426;55.872;37.462;2023-06-14T12:31:37;99484.63;;;24.26;25.08
66385;BME280;53426;55.872;37.462;2023-06-14T12:53:17;99358.16;;;23.84;24.35
66385;BME280;53426;55.872;37.462;2023-06-14T12:55:43;99331.91;;;23.59;23.96
66385;BME280;53426;55.872;37.462;2023-06-14T12:58:09;99307.88;;;23.38;23.82
66385;BME280;53426;55.872;37.462;2023-06-14T13:00:47;99239.16;;;22.96;23.82
66385;BME280;53426;55.872;37.462;2023-06-14T13:03:16;99431.00;;;24.10;23.82
66385;BME280;53426;55.872;37.462;2023-06-14T13:05:54;99432.25;;;24.39;23.99
66385;BME280;53426;55.872;37.462;2023-06-14T13:08:20;99435.38;;;24.42;24.54
66385;BME280;53426;55.872;37.462;2023-06-14T13:10:49;99253.59;;;23.08;23.85
66385;BME280;53426;55.872;37.462;2023-06-14T13:13:15;99310.53;;;23.51;23.97
66385;BME280;53426;55.872;37.462;2023-06-14T13:19:13;99374.16;;;23.85;24.63
66385;BME280;53426;55.872;37.462;2023-06-14T13:25:03;99430.97;;;24.16;24.60
66385;BME280;53426;55.872;37.462;2023-06-14T13:27:30;99272.28;;;23.16;24.82
66385;BME280;53426;55.872;37.462;2023-06-14T13:29:58;99396.22;;;23.82;25.09
66385;BME280;53426;55.872;37.462;2023-06-14T13:38:02;99275.84;;;23.10;25.72
66385;BME280;53426;55.872;37.462;2023-06-14T13:43:46;99423.13;;;24.33;26.03
66385;BME280;53426;55.872;37.462;2023-06-14T13:46:12;99403.41;;;24.33;25.92
66385;BME280;53426;55.872;37.462;2023-06-14T13:49:03;99328.81;;;23.87;25.54
66385;BME280;53426;55.872;37.462;2023-06-14T13:52:04;99413.28;;;24.21;25.17
66385;BME280;53426;55.872;37.462;2023-06-14T13:54:30;99408.31;;;24.11;25.07
66385;BME280;53426;55.872;37.462;2023-06-14T14:00:10;99400.22;;;24.11;25.14
66385;BME280;53426;55.872;37.462;2023-06-14T14:03:07;99416.81;;;24.14;25.04
66385;BME280;53426;55.872;37.462;2023-06-14T14:06:20;99408.53;;;24.09;24.82
66385;BME280;53426;55.872;37.462;2023-06-14T14:09:10;99332.72;;;23.60;24.97
66385;BME280;53426;55.872;37.462;2023-06-14T14:11:37;99291.81;;;23.18;24.85
66385;BME280;53426;55.872;37.462;2023-06-14T14:14:30;99411.91;;;24.05;24.98
66385;BME280;53426;55.872;37.462;2023-06-14T14:16:56;99411.44;;;24.08;24.91
66385;BME280;53426;55.872;37.462;2023-06-14T14:19:22;99424.47;;;24.24;25.02
66385;BME280;53426;55.872;37.462;2023-06-14T14:21:52;99245.59;;;23.26;25.04
66385;BME280;53426;55.872;37.462;2023-06-14T14:31:06;99256.59;;;22.93;25.25
66385;BME280;53426;55.872;37.462;2023-06-14T14:33:38;99327.81;;;23.44;25.29
66385;BME280;53426;55.872;37.462;2023-06-14T14:36:05;99368.78;;;23.78;25.83
66385;BME280;53426;55.872;37.462;2023-06-14T14:38:32;99267.66;;;23.23;25.03
66385;BME280;53426;55.872;37.462;2023-06-14T14:40:59;99401.16;;;23.92;25.02
66385;BME280;53426;55.872;37.462;2023-06-14T14:43:25;99410.56;;;23.89;25.09
66385;BME280;53426;55.872;37.462;2023-06-14T14:45:56;99410.72;;;23.94;25.05
66385;BME280;53426;55.872;37.462;2023-06-14T14:48:23;99388.78;;;23.77;25.54
66385;BME280;53426;55.872;37.462;2023-06-14T14:50:49;99394.19;;;23.77;25.46
66385;BME280;53426;55.872;37.462;2023-06-14T14:53:47;99404.34;;;23.82;25.62
66385;BME280;53426;55.872;37.462;2023-06-14T14:56:13;99413.63;;;23.93;25.66
66385;BME280;53426;55.872;37.462;2023-06-14T15:01:36;99372.16;;;23.74;25.75
66385;BME280;53426;55.872;37.462;2023-06-14T15:04:02;99410.31;;;23.91;25.82
66385;BME280;53426;55.872;37.462;2023-06-14T15:06:28;99378.47;;;23.61;25.66
66385;BME280;53426;55.872;37.462;2023-06-14T15:08:54;99410.47;;;23.64;25.35
66385;BME280;53426;55.872;37.462;2023-06-14T15:11:21;99420.25;;;23.65;25.53
66385;BME280;53426;55.872;37.462;2023-06-14T15:14:13;99329.28;;;23.02;25.55
66385;BME280;53426;55.872;37.462;2023-06-14T15:16:43;99365.03;;;23.48;25.26
66385;BME280;53426;55.872;37.462;2023-06-14T15:19:09;99348.25;;;23.26;25.21
66385;BME280;53426;55.872;37.462;2023-06-14T15:21:39;99325.31;;;22.98;24.93
66385;BME280;53426;55.872;37.462;2023-06-14T15:24:15;99320.97;;;22.97;24.90
66385;BME280;53426;55.872;37.462;2023-06-14T15:26:45;99284.94;;;22.71;25.04
66385;BME280;53426;55.872;37.462;2023-06-14T15:29:19;99307.31;;;22.85;25.25
66385;BME280;53426;55.872;37.462;2023-06-14T15:37:57;99418.41;;;23.59;25.66
66385;BME280;53426;55.872;37.462;2023-06-14T15:40:24;99387.69;;;23.47;25.64
66385;BME280;53426;55.872;37.462;2023-06-14T15:42:51;99419.63;;;23.63;25.53
66385;BME280;53426;55.872;37.462;2023-06-14T15:45:24;99424.00;;;23.58;25.32
66385;BME280;53426;55.872;37.462;2023-06-14T15:47:50;99383.38;;;23.33;25.78
66385;BME280;53426;55.872;37.462;2023-06-14T15:50:16;99374.06;;;23.22;25.36
66385;BME280;53426;55.872;37.462;2023-06-14T15:52:42;99409.75;;;23.31;25.21
66385;BME280;53426;55.872;37.462;2023-06-14T15:55:11;99413.50;;;23.30;25.33
66385;BME280;53426;55.872;37.462;2023-06-14T15:57:37;99428.06;;;23.29;24.90
66385;BME280;53426;55.872;37.462;2023-06-14T16:00:06;99419.97;;;23.29;24.86
66385;BME280;53426;55.872;37.462;2023-06-14T16:02:33;99414.16;;;23.19;25.24
66385;BME280;53426;55.872;37.462;2023-06-14T16:04:59;99402.34;;;23.13;25.12
66385;BME280;53426;55.872;37.462;2023-06-14T16:07:24;99422.44;;;23.24;24.85
66385;BME280;53426;55.872;37.462;2023-06-14T16:09:50;99418.97;;;23.17;24.96
66385;BME280;53426;55.872;37.462;2023-06-14T16:12:16;99370.03;;;22.80;25.33
66385;BME280;53426;55.872;37.462;2023-06-14T16:14:42;99415.03;;;23.06;25.26
66385;BME280;53426;55.872;37.462;2023-06-14T16:20:52;99347.44;;;22.48;25.83
66385;BME280;53426;55.872;37.462;2023-06-14T16:23:23;99367.34;;;22.54;25.77
66385;BME280;53426;55.872;37.462;2023-06-14T16:25:57;99231.75;;;21.75;25.75
66385;BME280;53426;55.872;37.462;2023-06-14T16:28:23;99325.06;;;22.08;25.84
66385;BME280;53426;55.872;37.462;2023-06-14T16:30:49;99428.81;;;22.85;25.53
66385;BME280;53426;55.872;37.462;2023-06-14T16:33:19;99428.59;;;22.80;26.23
66385;BME280;53426;55.872;37.462;2023-06-14T16:35:48;99429.84;;;22.77;25.82
66385;BME280;53426;55.872;37.462;2023-06-14T16:38:14;99432.16;;;22.74;25.98
66385;BME280;53426;55.872;37.462;2023-06-14T16:40:40;99438.94;;;22.70;25.67
66385;BME280;53426;55.872;37.462;2023-06-14T16:43:12;99421.13;;;22.56;25.81
66385;BME280;53426;55.872;37.462;2023-06-14T16:45:39;99431.09;;;22.62;26.03
66385;BME280;53426;55.872;37.462;2023-06-14T16:48:05;99427.16;;;22.51;25.64
66385;BME280;53426;55.872;37.462;2023-06-14T16:50:32;99351.81;;;21.97;25.70
66385;BME280;53426;55.872;37.462;2023-06-14T16:53:15;99296.38;;;21.61;25.59
66385;BME280;53426;55.872;37.462;2023-06-14T16:55:41;99342.44;;;21.80;25.86